Quenames — WTU9038 — position and weather

sailwx.info

Track history (hours):
 
Tides and Currents Weather Stations Pressure Air Temp Water Temp Dewpoint Dewpoint Depression Visibility Wind Speed Wind Dir Waves Ship Positions

Quenames

Owner: BOSTON MARINE TRANSPORT INC, EAST BOSTON, MA. More information available from US FCC via Universal Licensing System and Coast Guard Vessel Documentation Center.

Last reported at 2016-Dec-05 04:33 UTC. Time now 2016-Dec-06 12:11 UTC.
Position N 40°33' W 074°15'.

Length 23 m; draft 3 m.

Type: Tug. MMSI: 367022790.

Date/timePositionNaut miles runAvg speedWind from/ knotsBaromVisibWave heightAir tempDewpointWater temp
2016-Dec-05 04:33N 40°33' W 074°15'3 3.0
2016-Dec-05 03:31N 40°35' W 074°12'6 6.3
2016-Dec-05 02:33N 40°39' W 074°06'7 7.3
2016-Dec-05 01:33N 40°43' W 073°58'6 5.6
2016-Dec-05 00:32N 40°48' W 073°54'11 0.3
2016-Dec-03 13:08N 40°54' W 073°42'5 6.9
2016-Dec-03 12:26N 40°50' W 073°46'5 5.9
2016-Dec-03 11:32N 40°48' W 073°52'5 4.8
2016-Dec-03 10:33N 40°45' W 073°58'5 4.5
2016-Dec-03 09:33N 40°41' W 074°01'5 5.1
2016-Dec-03 08:33N 40°39' W 074°06'5 4.8
2016-Dec-03 07:33N 40°37' W 074°12'5 4.6
2016-Dec-03 06:33N 40°33' W 074°15'0 0.1
2016-Dec-03 01:32N 40°33' W 074°15'0 0.1
2016-Dec-03 00:33N 40°33' W 074°15'0 0.0
2016-Dec-02 23:32N 40°33' W 074°15'0 0.0
2016-Dec-02 22:32N 40°33' W 074°15'0 0.0
2016-Dec-02 21:29N 40°33' W 074°15'0 0.0
2016-Dec-02 19:25N 40°33' W 074°15'0 0.0
2016-Dec-02 18:33N 40°33' W 074°15'0 0.0
2016-Dec-02 17:33N 40°33' W 074°15'0 0.0
2016-Dec-02 16:33N 40°33' W 074°15'0 0.0
2016-Dec-02 15:33N 40°33' W 074°15'0 0.0
2016-Dec-02 14:04N 40°33' W 074°15'0 0.0
2016-Dec-02 13:33N 40°33' W 074°15'0 0.0
2016-Dec-02 12:10N 40°33' W 074°15'0 0.0
2016-Dec-02 11:31N 40°33' W 074°15'0 0.0
2016-Dec-02 10:23N 40°33' W 074°15'0 0.0
2016-Dec-02 09:31N 40°33' W 074°15'0 0.0
2016-Dec-02 08:24N 40°33' W 074°15'0 0.0
2016-Dec-02 07:28N 40°33' W 074°15'0 0.0
2016-Dec-02 06:10N 40°33' W 074°15'0 0.0
2016-Dec-02 04:14N 40°33' W 074°15'0 0.0
2016-Dec-02 03:32N 40°33' W 074°15'0 0.0
2016-Dec-02 02:33N 40°33' W 074°15'0 0.0
2016-Dec-02 01:33N 40°33' W 074°15'0 0.0
2016-Dec-01 18:12N 40°33' W 074°15'0 0.3
2016-Dec-01 17:33N 40°33' W 074°15'0 0.0
2016-Dec-01 15:32N 40°33' W 074°15'2 1.8
2016-Dec-01 14:24N 40°34' W 074°13'5 6.1
2016-Dec-01 13:33N 40°39' W 074°09'2 2.1
2016-Dec-01 12:33N 40°39' W 074°07'0 0.0
2016-Dec-01 11:33N 40°39' W 074°07'0 0.0
2016-Dec-01 10:33N 40°39' W 074°07'0 0.0
2016-Dec-01 09:33N 40°39' W 074°07'0 0.0
2016-Dec-01 08:33N 40°39' W 074°07'0 0.0
2016-Dec-01 07:33N 40°39' W 074°07'0 0.0
2016-Dec-01 06:33N 40°39' W 074°07'0 0.0
2016-Dec-01 05:33N 40°39' W 074°07'0 0.0
2016-Dec-01 04:33N 40°39' W 074°07'0 0.0
2016-Dec-01 03:33N 40°39' W 074°07'0 0.0
2016-Dec-01 02:32N 40°39' W 074°07'0 0.0
2016-Dec-01 01:33N 40°39' W 074°07'0 0.0
2016-Dec-01 00:33N 40°39' W 074°07'3 3.1
2016-Nov-30 23:32N 40°39' W 074°11'  
2016-Nov-28 01:32N 40°33' W 074°02'9 7.8
2016-Nov-28 00:26N 40°35' W 073°51'5 6.0
2016-Nov-27 23:31N 40°38' W 073°45'0 0.0
2016-Nov-27 22:33N 40°38' W 073°45'0 0.0
2016-Nov-27 21:33N 40°38' W 073°45'0 0.0
2016-Nov-27 19:33N 40°38' W 073°45'0 0.0
2016-Nov-27 18:33N 40°38' W 073°45'0 0.0
2016-Nov-27 17:33N 40°38' W 073°45'0 0.0
2016-Nov-27 16:30N 40°38' W 073°45'0 0.0
2016-Nov-27 15:32N 40°38' W 073°45'0 0.0
2016-Nov-27 14:11N 40°38' W 073°45'0 0.0
2016-Nov-27 13:19N 40°38' W 073°45'2 2.0
2016-Nov-27 12:32N 40°37' W 073°46'5 5.0
2016-Nov-27 11:33N 40°35' W 073°52'6 5.7
2016-Nov-27 10:33N 40°34' W 073°60'5 5.1
2016-Nov-27 09:33N 40°38' W 074°03'5 5.2
2016-Nov-27 08:33N 40°39' W 074°10'2 0.4
2016-Nov-27 03:18N 40°38' W 074°12'0 0.0
2016-Nov-27 02:31N 40°38' W 074°12'0 0.0
2016-Nov-27 01:31N 40°38' W 074°12'0 0.0
2016-Nov-26 20:23N 40°38' W 074°12'5 0.6
2016-Nov-26 11:25N 40°33' W 074°15'0 0.0
2016-Nov-26 10:31N 40°33' W 074°15'0 0.0
2016-Nov-26 09:31N 40°33' W 074°15'0 0.0
2016-Nov-26 08:33N 40°33' W 074°15'0 0.0
2016-Nov-26 07:03N 40°33' W 074°15'0 0.0
2016-Nov-26 06:33N 40°33' W 074°15'0 0.4
2016-Nov-26 05:23N 40°33' W 074°15'0 0.0
2016-Nov-26 04:33N 40°33' W 074°15'0 0.0
2016-Nov-25 06:33N 40°33' W 074°15'4 3.8
2016-Nov-25 05:32N 40°36' W 074°12'5 5.2
2016-Nov-25 04:33N 40°39' W 074°07'  
Track history (hours):
 
Tides and Currents Weather Stations Pressure Air Temp Water Temp Dewpoint Dewpoint Depression Visibility Wind Speed Wind Dir Waves Ship Positions

Quenames

Owner: BOSTON MARINE TRANSPORT INC, EAST BOSTON, MA. More information available from US FCC via Universal Licensing System and Coast Guard Vessel Documentation Center.

Last reported at 2016-Dec-05 04:33 UTC. Time now 2016-Dec-06 12:11 UTC.
Position N 40°33' W 074°15'.

Length 23 m; draft 3 m.

Type: Tug. MMSI: 367022790.

Date/timePositionNaut miles runAvg speedWind from/ knotsBaromVisibWave heightAir tempDewpointWater temp
2016-Dec-05 04:33N 40°33' W 074°15'3 3.0
2016-Dec-05 03:31N 40°35' W 074°12'6 6.3
2016-Dec-05 02:33N 40°39' W 074°06'7 7.3
2016-Dec-05 01:33N 40°43' W 073°58'6 5.6
2016-Dec-05 00:32N 40°48' W 073°54'11 0.3
2016-Dec-03 13:08N 40°54' W 073°42'5 6.9
2016-Dec-03 12:26N 40°50' W 073°46'5 5.9
2016-Dec-03 11:32N 40°48' W 073°52'5 4.8
2016-Dec-03 10:33N 40°45' W 073°58'5 4.5
2016-Dec-03 09:33N 40°41' W 074°01'5 5.1
2016-Dec-03 08:33N 40°39' W 074°06'5 4.8
2016-Dec-03 07:33N 40°37' W 074°12'5 4.6
2016-Dec-03 06:33N 40°33' W 074°15'0 0.1
2016-Dec-03 01:32N 40°33' W 074°15'0 0.1
2016-Dec-03 00:33N 40°33' W 074°15'0 0.0
2016-Dec-02 23:32N 40°33' W 074°15'0 0.0
2016-Dec-02 22:32N 40°33' W 074°15'0 0.0
2016-Dec-02 21:29N 40°33' W 074°15'0 0.0
2016-Dec-02 19:25N 40°33' W 074°15'0 0.0
2016-Dec-02 18:33N 40°33' W 074°15'0 0.0
2016-Dec-02 17:33N 40°33' W 074°15'0 0.0
2016-Dec-02 16:33N 40°33' W 074°15'0 0.0
2016-Dec-02 15:33N 40°33' W 074°15'0 0.0
2016-Dec-02 14:04N 40°33' W 074°15'0 0.0
2016-Dec-02 13:33N 40°33' W 074°15'0 0.0
2016-Dec-02 12:10N 40°33' W 074°15'0 0.0
2016-Dec-02 11:31N 40°33' W 074°15'0 0.0
2016-Dec-02 10:23N 40°33' W 074°15'0 0.0
2016-Dec-02 09:31N 40°33' W 074°15'0 0.0
2016-Dec-02 08:24N 40°33' W 074°15'0 0.0
2016-Dec-02 07:28N 40°33' W 074°15'0 0.0
2016-Dec-02 06:10N 40°33' W 074°15'0 0.0
2016-Dec-02 04:14N 40°33' W 074°15'0 0.0
2016-Dec-02 03:32N 40°33' W 074°15'0 0.0
2016-Dec-02 02:33N 40°33' W 074°15'0 0.0
2016-Dec-02 01:33N 40°33' W 074°15'0 0.0
2016-Dec-01 18:12N 40°33' W 074°15'0 0.3
2016-Dec-01 17:33N 40°33' W 074°15'0 0.0
2016-Dec-01 15:32N 40°33' W 074°15'2 1.8
2016-Dec-01 14:24N 40°34' W 074°13'5 6.1
2016-Dec-01 13:33N 40°39' W 074°09'2 2.1
2016-Dec-01 12:33N 40°39' W 074°07'0 0.0
2016-Dec-01 11:33N 40°39' W 074°07'0 0.0
2016-Dec-01 10:33N 40°39' W 074°07'0 0.0
2016-Dec-01 09:33N 40°39' W 074°07'0 0.0
2016-Dec-01 08:33N 40°39' W 074°07'0 0.0
2016-Dec-01 07:33N 40°39' W 074°07'0 0.0
2016-Dec-01 06:33N 40°39' W 074°07'0 0.0
2016-Dec-01 05:33N 40°39' W 074°07'0 0.0
2016-Dec-01 04:33N 40°39' W 074°07'0 0.0
2016-Dec-01 03:33N 40°39' W 074°07'0 0.0
2016-Dec-01 02:32N 40°39' W 074°07'0 0.0
2016-Dec-01 01:33N 40°39' W 074°07'0 0.0
2016-Dec-01 00:33N 40°39' W 074°07'3 3.1
2016-Nov-30 23:32N 40°39' W 074°11'  
2016-Nov-28 01:32N 40°33' W 074°02'9 7.8
2016-Nov-28 00:26N 40°35' W 073°51'5 6.0
2016-Nov-27 23:31N 40°38' W 073°45'0 0.0
2016-Nov-27 22:33N 40°38' W 073°45'0 0.0
2016-Nov-27 21:33N 40°38' W 073°45'0 0.0
2016-Nov-27 19:33N 40°38' W 073°45'0 0.0
2016-Nov-27 18:33N 40°38' W 073°45'0 0.0
2016-Nov-27 17:33N 40°38' W 073°45'0 0.0
2016-Nov-27 16:30N 40°38' W 073°45'0 0.0
2016-Nov-27 15:32N 40°38' W 073°45'0 0.0
2016-Nov-27 14:11N 40°38' W 073°45'0 0.0
2016-Nov-27 13:19N 40°38' W 073°45'2 2.0
2016-Nov-27 12:32N 40°37' W 073°46'5 5.0
2016-Nov-27 11:33N 40°35' W 073°52'6 5.7
2016-Nov-27 10:33N 40°34' W 073°60'5 5.1
2016-Nov-27 09:33N 40°38' W 074°03'5 5.2
2016-Nov-27 08:33N 40°39' W 074°10'2 0.4
2016-Nov-27 03:18N 40°38' W 074°12'0 0.0
2016-Nov-27 02:31N 40°38' W 074°12'0 0.0
2016-Nov-27 01:31N 40°38' W 074°12'0 0.0
2016-Nov-26 20:23N 40°38' W 074°12'5 0.6
2016-Nov-26 11:25N 40°33' W 074°15'0 0.0
2016-Nov-26 10:31N 40°33' W 074°15'0 0.0
2016-Nov-26 09:31N 40°33' W 074°15'0 0.0
2016-Nov-26 08:33N 40°33' W 074°15'0 0.0
2016-Nov-26 07:03N 40°33' W 074°15'0 0.0
2016-Nov-26 06:33N 40°33' W 074°15'0 0.4
2016-Nov-26 05:23N 40°33' W 074°15'0 0.0
2016-Nov-26 04:33N 40°33' W 074°15'0 0.0
2016-Nov-25 06:33N 40°33' W 074°15'4 3.8
2016-Nov-25 05:32N 40°36' W 074°12'5 5.2
2016-Nov-25 04:33N 40°39' W 074°07'  

Dump ship's entire track history